Time;durP1;ratioP1;P1;durP2;ratioP2;P2;SDS_P1;SDS_P2;PMS_P1;PMS_P2;Temp;Humidity;BMP_temperature;BMP_pressure;BME280_temperature;BME280_humidity;BME280_pressure;Samples;Min_cycle;Max_cycle;Signal;HPM_P1;HPM_P2
2021/08/30 00:01:55;;;;;;;25.77;19.17;;;;;16.40;101332.00;;;;5029263;28;20056;-77
2021/08/30 00:04:22;;;;;;;23.02;19.48;;;;;16.50;101362.00;;;;5029230;28;20382;-76
2021/08/30 00:06:49;;;;;;;18.40;16.38;;;;;16.60;101344.00;;;;5029443;28;20022;-76
2021/08/30 00:09:16;;;;;;;29.23;18.35;;;;;16.70;101360.00;;;;5029308;28;20057;-76
2021/08/30 00:11:43;;;;;;;20.77;18.58;;;;;16.60;101366.00;;;;5027619;28;20378;-77
2021/08/30 00:14:10;;;;;;;22.33;18.00;;;;;16.50;101377.00;;;;5029235;28;20481;-76
2021/08/30 00:16:36;;;;;;;21.90;19.23;;;;;16.50;101370.00;;;;5029134;28;20021;-76
2021/08/30 00:19:04;;;;;;;20.95;18.75;;;;;16.30;101380.00;;;;5029043;28;20093;-77
2021/08/30 00:21:30;;;;;;;22.42;18.38;;;;;16.20;101392.00;;;;5030081;28;20040;-76
2021/08/30 00:23:57;;;;;;;20.33;18.23;;;;;16.00;101382.00;;;;5029061;28;20038;-76
2021/08/30 00:26:23;;;;;;;21.45;17.63;;;;;16.00;101362.00;;;;5029446;28;20499;-77
2021/08/30 00:28:50;;;;;;;21.48;18.85;;;;;16.00;101364.00;;;;5029021;28;20036;-76
2021/08/30 00:31:17;;;;;;;21.85;18.77;;;;;16.00;101372.00;;;;5028689;28;20080;-76
2021/08/30 00:33:44;;;;;;;23.25;18.02;;;;;16.00;101380.00;;;;5027221;28;20025;-77
2021/08/30 00:36:11;;;;;;;22.80;18.05;;;;;16.10;101368.00;;;;5028770;28;20037;-76
2021/08/30 00:38:38;;;;;;;30.40;18.20;;;;;16.10;101378.00;;;;5028948;28;20080;-76
2021/08/30 00:41:04;;;;;;;22.35;16.92;;;;;16.10;101365.00;;;;5029204;28;20025;-76
2021/08/30 00:43:31;;;;;;;19.10;17.02;;;;;16.20;101393.00;;;;5029220;28;20037;-76
2021/08/30 00:45:59;;;;;;;19.00;17.00;;;;;16.20;101372.00;;;;5027337;28;20122;-77
2021/08/30 00:48:26;;;;;;;22.90;18.20;;;;;16.20;101395.00;;;;5028717;28;20053;-76
2021/08/30 00:50:53;;;;;;;21.02;17.10;;;;;16.20;101391.00;;;;5027755;28;20033;-76
2021/08/30 00:53:20;;;;;;;22.77;16.67;;;;;16.20;101389.00;;;;5027985;28;20030;-79
2021/08/30 00:55:46;;;;;;;20.02;16.80;;;;;16.20;101403.00;;;;5028575;28;20030;-75
2021/08/30 00:58:13;;;;;;;21.10;17.08;;;;;16.20;101378.00;;;;5028517;28;20546;-77
2021/08/30 01:00:40;;;;;;;18.50;16.20;;;;;16.20;101389.00;;;;5027725;28;20083;-76
2021/08/30 01:03:06;;;;;;;18.35;16.10;;;;;16.20;101396.00;;;;5027799;28;20563;-77
2021/08/30 01:05:33;;;;;;;19.20;16.25;;;;;16.10;101386.00;;;;5027872;28;20025;-77
2021/08/30 01:08:17;;;;;;;22.02;17.10;;;;;16.10;101411.00;;;;5029075;28;20041;-76
2021/08/30 01:10:53;;;;;;;20.23;17.50;;;;;16.00;101406.00;;;;5028558;28;20029;-76
2021/08/30 01:13:26;;;;;;;20.13;16.55;;;;;16.00;101388.00;;;;5028574;28;20034;-77
2021/08/30 01:15:54;;;;;;;22.15;17.65;;;;;15.90;101406.00;;;;5028370;28;20021;-76
2021/08/30 01:18:24;;;;;;;18.80;16.55;;;;;15.70;101384.00;;;;5028554;28;20116;-77
2021/08/30 01:21:06;;;;;;;20.92;17.85;;;;;15.50;101386.00;;;;5027883;28;20497;-76
2021/08/30 01:23:33;;;;;;;;;;;;;15.40;101409.00;;;;5028323;28;20508;-76
2021/08/30 01:26:04;;;;;;;18.20;16.40;;;;;15.40;101380.00;;;;5028016;28;20015;-76
2021/08/30 01:28:51;;;;;;;19.83;17.23;;;;;15.40;101379.00;;;;5028371;28;20074;-76
2021/08/30 01:31:34;;;;;;;23.08;16.20;;;;;15.20;101387.00;;;;5027562;28;20816;-77
2021/08/30 01:34:00;;;;;;;20.02;17.45;;;;;15.10;101386.00;;;;5027836;28;20034;-76
2021/08/30 01:36:28;;;;;;;21.52;17.38;;;;;15.10;101378.00;;;;5027812;28;20480;-77
2021/08/30 01:38:59;;;;;;;20.55;17.15;;;;;15.00;101405.00;;;;5026501;28;20029;-76
2021/08/30 01:41:27;;;;;;;21.35;17.02;;;;;14.90;101382.00;;;;5028241;28;20100;-76
2021/08/30 01:43:54;;;;;;;19.80;17.27;;;;;14.90;101374.00;;;;5027960;28;20041;-76
2021/08/30 01:46:22;;;;;;;19.17;17.23;;;;;15.00;101389.00;;;;5027717;28;20057;-76
2021/08/30 01:48:51;;;;;;;21.50;18.05;;;;;14.90;101386.00;;;;5027884;28;20029;-76
2021/08/30 01:51:21;;;;;;;20.08;17.50;;;;;14.90;101402.00;;;;5026899;28;20400;-79
2021/08/30 01:53:48;;;;;;;19.35;16.75;;;;;14.80;101366.00;;;;5027530;28;20029;-78
2021/08/30 01:56:18;;;;;;;24.60;18.40;;;;;14.80;101379.00;;;;5027456;28;20392;-78
2021/08/30 02:01:34;;;;;;;18.42;16.52;;;;;14.80;101387.00;;;;5027669;28;20413;-77
2021/08/30 02:04:02;;;;;;;19.33;17.13;;;;;14.80;101369.00;;;;5027484;28;20057;-77
2021/08/30 02:06:28;;;;;;;18.58;16.67;;;;;14.70;101363.00;;;;5027707;28;20823;-78
2021/08/30 02:08:56;;;;;;;25.08;18.10;;;;;14.70;101385.00;;;;5028137;28;20048;-78
2021/08/30 02:11:32;;;;;;;21.08;17.27;;;;;14.70;101383.00;;;;5026914;28;20381;-79
2021/08/30 02:14:00;;;;;;;21.83;17.50;;;;;14.70;101352.00;;;;5026883;28;20484;-79
2021/08/30 02:16:28;;;;;;;18.83;16.95;;;;;14.70;101378.00;;;;5027576;28;20031;-78
2021/08/30 02:19:12;;;;;;;21.20;16.45;;;;;14.70;101391.00;;;;5027392;28;20030;-78
2021/08/30 02:21:46;;;;;;;21.90;16.33;;;;;14.60;101383.00;;;;5025868;28;20037;-77
2021/08/30 02:24:37;;;;;;;20.55;15.57;;;;;14.50;101398.00;;;;5027089;28;20044;-78
2021/08/30 02:27:18;;;;;;;22.10;16.15;;;;;14.50;101392.00;;;;5027329;28;20072;-78
2021/08/30 02:29:51;;;;;;;18.70;15.88;;;;;14.50;101364.00;;;;5027345;28;20033;-78
2021/08/30 02:32:19;;;;;;;15.55;13.95;;;;;14.50;101392.00;;;;5026891;28;20053;-78
2021/08/30 02:34:51;;;;;;;15.55;13.95;;;;;14.50;101380.00;;;;5025944;28;20466;-78
2021/08/30 02:37:18;;;;;;;19.75;14.93;;;;;14.50;101369.00;;;;5027096;28;20049;-77
2021/08/30 02:39:49;;;;;;;19.52;15.30;;;;;14.40;101364.00;;;;5027045;28;20029;-78
2021/08/30 02:42:17;;;;;;;18.20;14.98;;;;;14.40;101383.00;;;;5027099;28;20141;-78
2021/08/30 02:44:45;;;;;;;16.85;14.55;;;;;14.30;101391.00;;;;5026876;28;20091;-76
2021/08/30 02:47:13;;;;;;;17.10;14.13;;;;;14.30;101389.00;;;;5026902;28;20451;-78
2021/08/30 02:49:45;;;;;;;16.20;14.43;;;;;14.30;101389.00;;;;5026967;28;20029;-78
2021/08/30 02:52:15;;;;;;;17.75;14.05;;;;;14.40;101389.00;;;;5026961;28;20079;-78
2021/08/30 02:54:43;;;;;;;17.73;14.40;;;;;14.40;101359.00;;;;5026774;28;20076;-78
2021/08/30 02:57:11;;;;;;;16.20;14.25;;;;;14.30;101370.00;;;;5028913;28;20108;-78
2021/08/30 02:59:40;;;;;;;15.95;14.27;;;;;14.30;101382.00;;;;5030742;28;20037;-78
2021/08/30 03:02:07;;;;;;;18.30;15.23;;;;;14.30;101368.00;;;;5029663;28;20617;-78
2021/08/30 03:04:36;;;;;;;22.17;14.43;;;;;14.30;101349.00;;;;5030754;28;20064;-78
2021/08/30 03:07:03;;;;;;;17.55;14.52;;;;;14.30;101374.00;;;;5030485;28;20381;-79
2021/08/30 03:09:30;;;;;;;17.55;14.05;;;;;14.30;101381.00;;;;5030940;28;20033;-78
2021/08/30 03:12:00;;;;;;;16.75;14.35;;;;;14.20;101331.00;;;;5030132;28;20037;-79
2021/08/30 03:14:28;;;;;;;21.58;14.88;;;;;14.20;101339.00;;;;5030452;28;20396;-78
2021/08/30 03:17:00;;;;;;;15.43;13.82;;;;;14.20;101350.00;;;;5030921;28;20036;-78
2021/08/30 03:19:28;;;;;;;16.75;14.52;;;;;14.20;101316.00;;;;5030613;28;20060;-78
2021/08/30 03:21:56;;;;;;;16.98;15.13;;;;;14.20;101358.00;;;;5030469;28;20079;-78
2021/08/30 03:24:23;;;;;;;16.60;14.25;;;;;14.20;101361.00;;;;5030372;28;20025;-78
2021/08/30 03:26:52;;;;;;;15.43;13.82;;;;;14.20;101344.00;;;;5028746;28;20061;-79
2021/08/30 03:29:20;;;;;;;16.27;14.57;;;;;14.30;101347.00;;;;5030397;28;20068;-78
2021/08/30 03:31:49;;;;;;;18.20;14.77;;;;;14.30;101321.00;;;;5030231;28;20056;-79
2021/08/30 03:34:17;;;;;;;15.85;14.13;;;;;14.30;101314.00;;;;5030189;28;20095;-78
2021/08/30 03:36:45;;;;;;;18.30;13.63;;;;;14.40;101310.00;;;;5030026;28;20033;-80
2021/08/30 03:39:12;;;;;;;16.70;13.15;;;;;14.50;101319.00;;;;5029625;28;20033;-78
2021/08/30 03:41:41;;;;;;;17.33;12.38;;;;;14.40;101314.00;;;;5029863;28;20026;-79
2021/08/30 03:44:09;;;;;;;13.57;11.60;;;;;14.30;101342.00;;;;5030280;28;20083;-79
2021/08/30 03:46:38;;;;;;;17.25;13.75;;;;;14.30;101319.00;;;;5030324;28;20122;-79
2021/08/30 03:49:06;;;;;;;18.77;13.10;;;;;14.30;101330.00;;;;5029829;28;20409;-78
2021/08/30 03:51:34;;;;;;;16.58;12.82;;;;;14.20;101305.00;;;;5029605;28;20512;-78
2021/08/30 03:54:02;;;;;;;14.77;12.20;;;;;14.20;101306.00;;;;5029637;28;20036;-77
2021/08/30 03:56:30;;;;;;;15.65;12.65;;;;;14.20;101307.00;;;;5030014;28;20044;-77
2021/08/30 03:58:59;;;;;;;14.20;12.70;;;;;14.20;101301.00;;;;5029789;28;20029;-77
2021/08/30 04:01:27;;;;;;;16.48;12.70;;;;;14.20;101318.00;;;;5029719;28;20041;-77
2021/08/30 04:03:57;;;;;;;14.85;12.57;;;;;14.10;101297.00;;;;5029769;28;20399;-78
2021/08/30 04:06:25;;;;;;;14.73;13.10;;;;;14.00;101317.00;;;;5029642;28;20033;-78
2021/08/30 04:08:52;;;;;;;13.82;12.45;;;;;14.10;101293.00;;;;5030025;28;20044;-78
2021/08/30 04:11:19;;;;;;;14.27;12.73;;;;;14.00;101280.00;;;;5029820;28;20033;-78
2021/08/30 04:13:46;;;;;;;14.88;13.10;;;;;14.00;101291.00;;;;5030084;28;20029;-77
2021/08/30 04:16:13;;;;;;;13.32;11.93;;;;;14.10;101280.00;;;;5029761;28;20546;-78
2021/08/30 04:18:39;;;;;;;15.52;11.48;;;;;14.10;101311.00;;;;5029428;28;20026;-78
2021/08/30 04:21:06;;;;;;;16.35;12.65;;;;;14.00;101286.00;;;;5029395;28;20485;-78
2021/08/30 04:23:33;;;;;;;17.90;12.32;;;;;14.00;101288.00;;;;5029437;28;20032;-78
2021/08/30 04:25:59;;;;;;;15.88;12.80;;;;;14.00;101283.00;;;;5029131;28;20026;-78
2021/08/30 04:28:26;;;;;;;16.73;11.70;;;;;14.00;101294.00;;;;5028585;28;20028;-78
2021/08/30 04:30:53;;;;;;;14.52;12.63;;;;;14.00;101303.00;;;;5028407;28;20049;-78
2021/08/30 04:33:22;;;;;;;14.13;11.43;;;;;14.00;101283.00;;;;5029022;28;20040;-78
2021/08/30 04:35:48;;;;;;;14.52;11.68;;;;;13.90;101273.00;;;;5029279;28;20059;-78
2021/08/30 04:38:15;;;;;;;13.00;11.40;;;;;13.90;101300.00;;;;5029018;28;20038;-78
2021/08/30 04:40:42;;;;;;;14.90;10.82;;;;;13.80;101271.00;;;;5029292;28;20124;-77
2021/08/30 04:43:13;;;;;;;15.85;12.32;;;;;13.80;101269.00;;;;5029441;28;20033;-78
2021/08/30 04:45:39;;;;;;;12.15;10.35;;;;;13.90;101299.00;;;;5028517;28;20121;-78
2021/08/30 04:48:06;;;;;;;13.50;11.43;;;;;13.90;101275.00;;;;5028752;28;20503;-77
2021/08/30 04:50:33;;;;;;;11.95;10.70;;;;;13.80;101260.00;;;;5028921;28;20044;-78
2021/08/30 04:53:00;;;;;;;16.02;11.45;;;;;13.80;101284.00;;;;5028757;28;20103;-77
2021/08/30 04:55:26;;;;;;;13.82;11.57;;;;;13.70;101277.00;;;;5029096;28;20057;-78
2021/08/30 04:57:53;;;;;;;13.50;11.80;;;;;13.70;101258.00;;;;5028586;28;20029;-78
2021/08/30 05:00:20;;;;;;;16.80;11.98;;;;;13.70;101250.00;;;;5027836;28;20370;-78
2021/08/30 05:02:46;;;;;;;13.40;11.45;;;;;13.70;101275.00;;;;5029223;28;20128;-77
2021/08/30 05:05:13;;;;;;;12.98;11.68;;;;;13.80;101279.00;;;;5028186;28;20388;-77
2021/08/30 05:07:39;;;;;;;13.23;11.27;;;;;13.70;101278.00;;;;5028867;28;20037;-79
2021/08/30 05:10:06;;;;;;;13.93;10.93;;;;;13.60;101275.00;;;;5029152;28;20029;-78
2021/08/30 05:12:33;;;;;;;13.30;11.18;;;;;13.60;101259.00;;;;5028028;28;20076;-77
2021/08/30 05:15:00;;;;;;;11.57;10.48;;;;;13.60;101270.00;;;;5028277;28;20072;-78
2021/08/30 05:17:27;;;;;;;15.70;11.75;;;;;13.60;101242.00;;;;5028852;28;20025;-78
2021/08/30 05:19:53;;;;;;;15.50;11.40;;;;;13.50;101259.00;;;;5027180;28;20597;-78
2021/08/30 05:22:20;;;;;;;14.80;10.60;;;;;13.50;101254.00;;;;5027803;28;20033;-77
2021/08/30 05:24:46;;;;;;;13.27;10.88;;;;;13.50;101244.00;;;;5028079;28;20144;-77
2021/08/30 05:27:13;;;;;;;11.18;10.07;;;;;13.50;101248.00;;;;5028317;28;20029;-77
2021/08/30 05:29:40;;;;;;;15.65;10.90;;;;;13.50;101237.00;;;;5028087;28;20035;-78
2021/08/30 05:32:07;;;;;;;12.52;10.57;;;;;13.50;101236.00;;;;5028065;28;20049;-78
2021/08/30 05:34:33;;;;;;;11.05;9.77;;;;;13.50;101249.00;;;;5027985;28;20508;-78
2021/08/30 05:37:00;;;;;;;12.82;10.15;;;;;13.50;101225.00;;;;5027806;28;20060;-78
2021/08/30 05:39:27;;;;;;;12.02;9.82;;;;;13.40;101227.00;;;;5027917;28;20022;-78
2021/08/30 05:41:53;;;;;;;13.25;10.82;;;;;13.30;101246.00;;;;5027331;28;20109;-78
2021/08/30 05:44:20;;;;;;;13.10;10.45;;;;;13.40;101245.00;;;;5027836;28;20070;-78
2021/08/30 05:46:48;;;;;;;12.60;9.55;;;;;13.40;101212.00;;;;5027871;28;20552;-78
2021/08/30 05:49:14;;;;;;;13.57;9.25;;;;;13.30;101222.00;;;;5027653;28;20029;-78
2021/08/30 05:51:41;;;;;;;12.93;10.30;;;;;13.30;101220.00;;;;5026191;28;20037;-78
2021/08/30 05:54:08;;;;;;;10.98;9.35;;;;;13.40;101224.00;;;;5027081;28;20500;-78
2021/08/30 05:56:34;;;;;;;10.82;9.13;;;;;13.40;101236.00;;;;5025988;28;20509;-78
2021/08/30 05:59:01;;;;;;;10.68;9.48;;;;;13.30;101241.00;;;;5042555;28;20041;-78
2021/08/30 06:01:28;;;;;;;13.63;9.02;;;;;13.40;101219.00;;;;5028141;28;20029;-79
2021/08/30 06:03:54;;;;;;;10.73;9.52;;;;;13.30;101224.00;;;;5027569;28;20556;-79
2021/08/30 06:06:21;;;;;;;10.32;9.13;;;;;13.30;101238.00;;;;5025582;28;20025;-79
2021/08/30 06:08:48;;;;;;;10.77;8.32;;;;;13.30;101192.00;;;;5027517;28;20579;-79
2021/08/30 06:11:14;;;;;;;12.23;8.60;;;;;13.30;101212.00;;;;5026967;28;20115;-79
2021/08/30 06:13:41;;;;;;;11.63;8.85;;;;;13.20;101206.00;;;;5027183;28;20025;-79
2021/08/30 06:16:08;;;;;;;9.75;8.38;;;;;13.20;101223.00;;;;5027423;28;20036;-79
2021/08/30 06:18:34;;;;;;;9.32;8.27;;;;;13.20;101198.00;;;;5026993;28;20055;-79
2021/08/30 06:21:01;;;;;;;9.20;8.30;;;;;13.20;101205.00;;;;5027564;28;20029;-79
2021/08/30 06:23:29;;;;;;;10.55;9.20;;;;;13.20;101199.00;;;;5026890;28;20025;-79
2021/08/30 06:25:57;;;;;;;12.88;9.23;;;;;13.20;101219.00;;;;5027954;28;20029;-79
2021/08/30 06:28:23;;;;;;;8.93;7.95;;;;;13.10;101190.00;;;;5027537;28;20500;-78
2021/08/30 06:30:52;;;;;;;9.25;7.97;;;;;13.00;101185.00;;;;5024543;28;20057;-79
2021/08/30 06:33:18;;;;;;;11.55;8.88;;;;;13.00;101207.00;;;;5041894;28;20041;-79
2021/08/30 06:35:45;;;;;;;9.65;8.02;;;;;13.00;101195.00;;;;5026840;28;20033;-79
2021/08/30 06:38:14;;;;;;;10.48;8.32;;;;;13.10;101208.00;;;;5026525;28;20116;-79
2021/08/30 06:40:40;;;;;;;10.00;7.97;;;;;13.00;101232.00;;;;5026715;28;20767;-79
2021/08/30 06:43:07;;;;;;;10.25;8.07;;;;;13.10;101198.00;;;;5026823;28;20052;-78
2021/08/30 06:45:34;;;;;;;8.57;7.05;;;;;13.10;101217.00;;;;5027055;28;20033;-79
2021/08/30 06:48:01;;;;;;;11.40;7.20;;;;;13.10;101210.00;;;;5026433;28;20025;-79
2021/08/30 06:50:28;;;;;;;9.82;7.60;;;;;13.10;101197.00;;;;5026736;28;20087;-78
2021/08/30 06:52:55;;;;;;;9.13;6.95;;;;;13.10;101200.00;;;;5026653;28;20381;-80
2021/08/30 06:55:21;;;;;;;9.35;7.18;;;;;13.10;101209.00;;;;5027098;28;20063;-79
2021/08/30 06:57:48;;;;;;;8.77;7.25;;;;;13.10;101182.00;;;;5027040;28;20116;-78
2021/08/30 07:00:18;;;;;;;9.05;7.10;;;;;13.00;101192.00;;;;5026598;28;20072;-78
2021/08/30 07:02:45;;;;;;;12.27;6.68;;;;;13.10;101190.00;;;;5026791;28;20033;-78
2021/08/30 07:05:13;;;;;;;11.80;6.97;;;;;13.10;101210.00;;;;5026617;28;20103;-78
2021/08/30 07:07:39;;;;;;;7.55;6.63;;;;;13.10;101200.00;;;;5026259;28;20080;-79
2021/08/30 07:10:07;;;;;;;9.55;6.72;;;;;13.00;101181.00;;;;5042055;28;20033;-78
2021/08/30 07:12:33;;;;;;;10.32;7.25;;;;;13.00;101191.00;;;;5025748;28;20408;-78
2021/08/30 07:15:00;;;;;;;11.07;7.75;;;;;13.00;101179.00;;;;5026705;28;20029;-79
2021/08/30 07:17:26;;;;;;;9.77;6.75;;;;;12.90;101182.00;;;;5026386;28;20045;-78
2021/08/30 07:19:53;;;;;;;7.65;6.68;;;;;12.90;101177.00;;;;5025447;28;20489;-78
2021/08/30 07:22:20;;;;;;;9.40;7.63;;;;;13.00;101195.00;;;;5026779;28;20495;-78
2021/08/30 07:24:47;;;;;;;8.95;7.82;;;;;13.00;101197.00;;;;5026659;28;20380;-77
2021/08/30 07:27:14;;;;;;;10.38;6.95;;;;;13.00;101180.00;;;;5026686;28;20026;-79
2021/08/30 07:29:40;;;;;;;8.60;7.18;;;;;12.90;101169.00;;;;5026292;28;20120;-76
2021/08/30 07:32:08;;;;;;;9.98;6.78;;;;;12.90;101189.00;;;;5026214;28;20053;-77
2021/08/30 07:34:34;;;;;;;9.20;6.28;;;;;12.80;101192.00;;;;5026152;28;20394;-77
2021/08/30 07:37:02;;;;;;;10.30;7.30;;;;;12.80;101200.00;;;;5026332;28;20504;-78
2021/08/30 07:39:28;;;;;;;8.68;6.82;;;;;12.80;101172.00;;;;5026191;28;20037;-77
2021/08/30 07:41:55;;;;;;;8.73;7.30;;;;;12.80;101211.00;;;;5026926;28;20040;-78
2021/08/30 07:44:24;;;;;;;8.63;6.70;;;;;12.80;101185.00;;;;5029827;28;20087;-79
2021/08/30 07:46:51;;;;;;;10.05;6.55;;;;;12.80;101184.00;;;;5029792;28;20036;-79
2021/08/30 07:49:18;;;;;;;10.73;5.70;;;;;12.80;101196.00;;;;5029510;28;20044;-79
2021/08/30 07:51:44;;;;;;;7.03;5.43;;;;;12.80;101192.00;;;;5029926;28;20044;-78
2021/08/30 07:54:11;;;;;;;6.82;5.68;;;;;12.90;101205.00;;;;5029905;28;20056;-78
2021/08/30 07:56:40;;;;;;;9.63;6.75;;;;;12.90;101214.00;;;;5030156;28;20040;-78
2021/08/30 07:59:08;;;;;;;8.50;6.30;;;;;12.90;101217.00;;;;5029483;28;20112;-78
2021/08/30 08:01:36;;;;;;;10.68;6.05;;;;;12.80;101186.00;;;;5029576;28;20025;-78
2021/08/30 08:04:02;;;;;;;7.07;5.45;;;;;12.80;101212.00;;;;5045025;28;20049;-78
2021/08/30 08:06:29;;;;;;;7.35;5.10;;;;;12.80;101207.00;;;;5028379;28;20554;-78
2021/08/30 08:08:56;;;;;;;11.23;5.32;;;;;12.80;101186.00;;;;5029671;28;20053;-78
2021/08/30 08:11:23;;;;;;;6.45;5.05;;;;;12.70;101208.00;;;;5029558;28;20044;-79
2021/08/30 08:13:50;;;;;;;7.55;5.15;;;;;12.80;101197.00;;;;5029584;28;20031;-79
2021/08/30 08:16:17;;;;;;;5.60;5.10;;;;;12.70;101213.00;;;;5029496;28;20468;-78
2021/08/30 08:18:43;;;;;;;11.15;5.53;;;;;12.70;101232.00;;;;5028262;28;20451;-79
2021/08/30 08:21:10;;;;;;;6.00;4.93;;;;;12.70;101224.00;;;;5029445;28;20400;-78
2021/08/30 08:23:37;;;;;;;6.95;4.68;;;;;12.70;101230.00;;;;5029234;28;20087;-79
2021/08/30 08:26:03;;;;;;;11.23;5.13;;;;;12.70;101235.00;;;;5029276;28;20055;-78
2021/08/30 08:28:30;;;;;;;7.95;4.43;;;;;12.70;101213.00;;;;5029242;28;20072;-78
2021/08/30 08:30:57;;;;;;;6.68;5.15;;;;;12.60;101223.00;;;;5028593;28;20049;-78
2021/08/30 08:33:23;;;;;;;8.95;5.10;;;;;12.60;101223.00;;;;5028909;28;20087;-78
2021/08/30 08:35:50;;;;;;;6.65;4.55;;;;;12.40;101238.00;;;;5029564;28;20079;-79
2021/08/30 08:38:17;;;;;;;11.10;5.30;;;;;12.40;101225.00;;;;5029207;28;20033;-78
2021/08/30 08:40:43;;;;;;;7.78;4.70;;;;;12.40;101227.00;;;;5028768;28;20029;-78
2021/08/30 08:43:15;;;;;;;8.40;4.57;;;;;12.40;101258.00;;;;5028789;28;20032;-78
2021/08/30 08:45:44;;;;;;;7.07;4.85;;;;;12.40;101224.00;;;;5029127;28;20057;-77
2021/08/30 08:48:11;;;;;;;6.80;4.85;;;;;12.40;101245.00;;;;5028367;28;20034;-77
2021/08/30 08:50:38;;;;;;;6.57;5.07;;;;;12.30;101257.00;;;;5028846;28;20033;-77
2021/08/30 08:53:06;;;;;;;9.90;5.45;;;;;12.20;101232.00;;;;5028363;28;20144;-79
2021/08/30 08:55:34;;;;;;;7.07;4.75;;;;;12.20;101239.00;;;;5027464;28;20041;-78
2021/08/30 08:58:21;;;;;;;7.13;5.57;;;;;12.10;101241.00;;;;5028599;28;20025;-77
2021/08/30 09:01:10;;;;;;;10.02;5.20;;;;;12.10;101263.00;;;;5027258;28;20103;-78
2021/08/30 09:03:44;;;;;;;5.32;4.70;;;;;12.00;101257.00;;;;5029048;28;20075;-78
2021/08/30 09:06:12;;;;;;;14.32;5.38;;;;;11.90;101256.00;;;;5028066;28;20485;-78
2021/08/30 09:08:43;;;;;;;6.97;5.55;;;;;11.90;101266.00;;;;5028783;28;20040;-77
2021/08/30 09:11:22;;;;;;;14.15;5.75;;;;;11.90;101258.00;;;;5027809;28;20072;-78
2021/08/30 09:13:51;;;;;;;14.18;5.78;;;;;12.00;101288.00;;;;5028287;28;20065;-78
2021/08/30 09:16:20;;;;;;;7.35;5.45;;;;;12.00;101292.00;;;;5028398;28;20060;-77
2021/08/30 09:18:48;;;;;;;11.02;6.30;;;;;11.90;101290.00;;;;5028130;28;20061;-77
2021/08/30 09:21:18;;;;;;;8.40;6.10;;;;;11.80;101268.00;;;;5028620;28;20121;-77
2021/08/30 09:23:45;;;;;;;8.38;6.15;;;;;11.80;101287.00;;;;5028399;28;20030;-74
2021/08/30 09:26:17;;;;;;;12.65;5.93;;;;;11.80;101300.00;;;;5028318;28;20044;-74
2021/08/30 09:28:51;;;;;;;10.77;5.90;;;;;11.90;101281.00;;;;5028950;28;20072;-77
2021/08/30 09:31:17;;;;;;;10.95;5.93;;;;;11.80;101310.00;;;;5027556;28;20172;-77
2021/08/30 09:33:52;;;;;;;27.45;8.43;;;;;11.80;101306.00;;;;5028187;28;20033;-77
2021/08/30 09:36:20;;;;;;;20.30;8.10;;;;;11.80;101293.00;;;;5027858;28;20056;-77
2021/08/30 09:38:54;;;;;;;20.30;6.95;;;;;11.80;101313.00;;;;5027703;28;20061;-78
2021/08/30 09:41:21;;;;;;;17.95;6.78;;;;;11.70;101329.00;;;;5028046;28;20032;-77
2021/08/30 09:43:59;;;;;;;10.57;6.53;;;;;11.80;101344.00;;;;5027058;28;20438;-77
2021/08/30 09:46:31;;;;;;;11.40;6.40;;;;;11.80;101348.00;;;;5025959;28;20099;-77
2021/08/30 09:49:31;;;;;;;10.13;5.93;;;;;11.80;101344.00;;;;5026657;28;20057;-78
2021/08/30 09:51:58;;;;;;;8.82;6.15;;;;;11.80;101325.00;;;;5012550;28;20037;-77
2021/08/30 09:54:25;;;;;;;9.65;5.38;;;;;11.80;101331.00;;;;5026194;28;20078;-77
2021/08/30 09:56:52;;;;;;;7.65;5.60;;;;;11.70;101335.00;;;;5027587;28;20420;-77
2021/08/30 09:59:21;;;;;;;7.10;6.10;;;;;11.80;101331.00;;;;5027081;28;20037;-77
2021/08/30 10:01:51;;;;;;;9.30;6.60;;;;;11.90;101356.00;;;;5027365;28;20030;-77
2021/08/30 10:04:20;;;;;;;9.50;7.03;;;;;12.00;101377.00;;;;5027369;28;20021;-77
2021/08/30 10:06:51;;;;;;;12.32;7.57;;;;;12.00;101347.00;;;;5027192;28;20025;-78
2021/08/30 10:09:19;;;;;;;12.23;7.00;;;;;12.00;101359.00;;;;5027203;28;20032;-77
2021/08/30 10:11:48;;;;;;;8.95;6.50;;;;;12.10;101375.00;;;;5027059;28;20303;-77
2021/08/30 10:14:20;;;;;;;7.85;6.30;;;;;12.20;101347.00;;;;5027351;28;20028;-78
2021/08/30 10:16:47;;;;;;;8.38;5.75;;;;;12.30;101375.00;;;;5027351;28;20108;-77
2021/08/30 10:19:32;;;;;;;8.65;6.13;;;;;12.40;101384.00;;;;5027395;28;20096;-79
2021/08/30 10:22:01;;;;;;;13.85;6.82;;;;;12.40;101359.00;;;;5027095;28;20025;-78
2021/08/30 10:24:39;;;;;;;14.63;7.18;;;;;12.50;101360.00;;;;5026703;28;20045;-79
2021/08/30 10:27:09;;;;;;;12.52;6.93;;;;;12.60;101355.00;;;;5026537;28;20393;-78
2021/08/30 10:29:41;;;;;;;9.02;6.25;;;;;12.70;101365.00;;;;5026449;28;20037;-78
2021/08/30 10:32:21;;;;;;;12.95;6.85;;;;;12.80;101373.00;;;;5026902;28;20496;-78
2021/08/30 10:34:55;;;;;;;14.52;6.55;;;;;13.00;101362.00;;;;5026081;28;20032;-78
2021/08/30 10:37:22;;;;;;;8.55;6.00;;;;;13.10;101387.00;;;;5026937;28;20040;-78
2021/08/30 10:39:54;;;;;;;11.82;6.55;;;;;13.30;101379.00;;;;5041908;28;20032;-78
2021/08/30 10:42:22;;;;;;;7.53;6.28;;;;;13.40;101363.00;;;;5026844;28;20033;-79
2021/08/30 10:44:54;;;;;;;9.48;6.13;;;;;13.60;101366.00;;;;5026561;28;20051;-79
2021/08/30 10:47:26;;;;;;;10.13;6.63;;;;;13.80;101369.00;;;;5027132;28;20026;-78
2021/08/30 10:49:53;;;;;;;;;;;;;14.00;101378.00;;;;5027528;28;20033;-79
2021/08/30 10:52:20;;;;;;;7.13;6.07;;;;;14.10;101344.00;;;;5026561;28;19913;-79
2021/08/30 10:55:16;;;;;;;17.15;6.00;;;;;14.30;101368.00;;;;5026808;28;20030;-78
2021/08/30 10:57:51;;;;;;;13.48;7.35;;;;;14.40;101366.00;;;;5024401;28;20037;-79
2021/08/30 11:00:28;;;;;;;11.40;8.55;;;;;15.00;101373.00;;;;5042163;28;20461;-79
2021/08/30 11:02:55;;;;;;;7.35;6.55;;;;;15.20;101351.00;;;;5026481;28;20067;-79
2021/08/30 11:05:31;;;;;;;10.18;6.30;;;;;15.40;101342.00;;;;5026743;28;20057;-79
2021/08/30 11:07:58;;;;;;;9.65;6.55;;;;;15.50;101342.00;;;;5026531;28;20021;-79
2021/08/30 11:10:28;;;;;;;9.18;5.93;;;;;15.80;101340.00;;;;5027050;28;20033;-79
2021/08/30 11:12:56;;;;;;;10.23;6.65;;;;;16.10;101343.00;;;;5026505;28;20025;-79
2021/08/30 11:15:31;;;;;;;12.25;9.43;;;;;17.10;101336.00;;;;5026844;28;20037;-79
2021/08/30 11:18:04;;;;;;;27.35;7.70;;;;;20.30;101235.00;;;;5028256;28;20038;-79
2021/08/30 11:20:31;;;;;;;12.85;6.28;;;;;23.00;101128.00;;;;5030311;28;20026;-79
2021/08/30 11:22:58;;;;;;;13.98;6.05;;;;;24.30;101148.00;;;;5030278;28;20029;-77
2021/08/30 11:25:34;;;;;;;11.32;6.32;;;;;25.30;101159.00;;;;5029790;28;20526;-77
2021/08/30 11:28:11;;;;;;;14.05;5.68;;;;;25.20;101168.00;;;;5031257;28;20076;-77
2021/08/30 11:30:38;;;;;;;7.30;5.40;;;;;25.50;101161.00;;;;5051118;28;20062;-78
2021/08/30 11:33:04;;;;;;;13.25;5.90;;;;;25.60;101164.00;;;;5030439;28;20506;-78
2021/08/30 11:35:31;;;;;;;17.95;7.13;;;;;25.90;101146.00;;;;5029855;28;20048;-79
2021/08/30 11:37:58;;;;;;;16.15;8.20;;;;;26.10;101125.00;;;;5030477;28;20025;-79
2021/08/30 11:40:25;;;;;;;9.20;6.00;;;;;26.10;101130.00;;;;5030611;28;20021;-80
2021/08/30 11:42:51;;;;;;;8.93;5.90;;;;;26.20;101130.00;;;;5029778;28;20496;-81
2021/08/30 11:45:20;;;;;;;18.80;11.27;;;;;26.90;101149.00;;;;5030084;28;20079;-78
2021/08/30 11:47:47;;;;;;;8.38;4.72;;;;;27.30;101156.00;;;;5030353;28;20026;-78
2021/08/30 11:50:14;;;;;;;7.10;4.20;;;;;26.90;101180.00;;;;5030504;28;20452;-80
2021/08/30 11:52:41;;;;;;;12.43;4.53;;;;;27.20;101195.00;;;;5029793;28;20108;-80
2021/08/30 11:55:11;;;;;;;8.32;3.90;;;;;28.00;101190.00;;;;5029713;28;20026;-78
2021/08/30 11:58:01;;;;;;;10.50;3.85;;;;;28.60;101219.00;;;;5030020;28;20120;-78
2021/08/30 12:00:29;;;;;;;4.85;3.53;;;;;28.10;101217.00;;;;5030171;28;20489;-79
2021/08/30 12:03:01;;;;;;;7.78;3.63;;;;;28.60;101236.00;;;;5029647;28;20040;-79
2021/08/30 12:05:32;;;;;;;6.90;3.97;;;;;28.40;101227.00;;;;5029476;28;20017;-79
2021/08/30 12:08:00;;;;;;;6.20;3.20;;;;;28.20;101221.00;;;;5029855;28;20041;-79
2021/08/30 12:10:30;;;;;;;7.75;3.38;;;;;28.50;101192.00;;;;5029533;28;20021;-79